Time;durP1;ratioP1;P1;durP2;ratioP2;P2;SDS_P1;SDS_P2;PMS_P1;PMS_P2;Temp;Humidity;BMP_temperature;BMP_pressure;BME280_temperature;BME280_humidity;BME280_pressure;Samples;Min_cycle;Max_cycle;Signal;HPM_P1;HPM_P2
2020/12/06 00:01:56;;;;;;;8.90;5.85;;;204.80;2227.20;;;;;;5098372;28;20341;-67
2020/12/06 00:04:22;;;;;;;10.15;6.75;;;204.80;2227.20;;;;;;5098460;28;20500;-66
2020/12/06 00:06:48;;;;;;;11.02;7.15;;;204.90;2227.20;;;;;;5097329;28;20028;-68
2020/12/06 00:09:16;;;;;;;11.60;6.30;;;204.90;2227.20;;;;;;5097594;28;20039;-68
2020/12/06 00:11:42;;;;;;;9.60;6.35;;;204.90;2227.20;;;;;;5096977;28;20069;-69
2020/12/06 00:14:07;;;;;;;11.15;6.95;;;204.90;2227.20;;;;;;5097468;28;20028;-68
2020/12/06 00:16:33;;;;;;;10.38;6.55;;;204.90;2227.20;;;;;;5097021;28;20045;-67
2020/12/06 00:18:59;;;;;;;11.02;6.88;;;205.00;2227.20;;;;;;5099459;28;20059;-68
2020/12/06 00:21:25;;;;;;;9.90;6.88;;;204.80;2227.20;;;;;;5117018;28;20058;-67
2020/12/06 00:23:51;;;;;;;10.45;6.53;;;204.80;2227.20;;;;;;5117288;28;20054;-66
2020/12/06 00:26:26;;;;;;;10.25;6.55;;;204.80;2227.20;;;;;;5117331;28;20024;-67
2020/12/06 00:28:53;;;;;;;9.35;5.63;;;180.10;2227.20;;;;;;5117549;28;20043;-68
2020/12/06 00:31:20;;;;;;;11.52;6.82;;;180.10;2252.80;;;;;;5117242;28;20019;-66
2020/12/06 00:33:46;;;;;;;12.73;6.72;;;180.10;2227.20;;;;;;5107134;28;20152;-67
2020/12/06 00:36:13;;;;;;;11.20;7.07;;;180.10;2227.20;;;;;;5096686;28;20024;-67
2020/12/06 00:38:40;;;;;;;10.85;6.60;;;180.10;2227.20;;;;;;5096594;28;20031;-67
2020/12/06 00:41:13;;;;;;;9.80;6.30;;;180.10;2227.20;;;;;;5097095;28;20024;-69
2020/12/06 00:43:39;;;;;;;10.43;6.38;;;180.10;2227.20;;;;;;5096650;28;20024;-67
2020/12/06 00:46:05;;;;;;;11.63;7.70;;;180.00;2252.80;;;;;;5096604;28;20034;-67
2020/12/06 00:48:31;;;;;;;11.80;6.85;;;180.00;2227.20;;;;;;5096742;28;20032;-67
2020/12/06 00:50:57;;;;;;;11.20;6.85;;;180.00;2227.20;;;;;;5096207;28;20024;-67
2020/12/06 00:53:23;;;;;;;9.23;6.22;;;179.90;2252.80;;;;;;5095985;28;20056;-71
2020/12/06 00:55:49;;;;;;;11.27;7.00;;;179.90;2252.80;;;;;;5099097;28;20506;-67
2020/12/06 00:58:14;;;;;;;9.55;5.80;;;179.90;2252.80;;;;;;5116973;28;20039;-67
2020/12/06 01:00:40;;;;;;;10.57;6.28;;;179.90;2252.80;;;;;;5116272;28;20699;-67
2020/12/06 01:03:06;;;;;;;11.75;6.70;;;179.80;2252.80;;;;;;5116901;28;20106;-69
2020/12/06 01:05:32;;;;;;;15.57;7.13;;;179.80;2252.80;;;;;;5116954;28;20088;-67
2020/12/06 01:07:58;;;;;;;14.60;7.05;;;179.80;2252.80;;;;;;5116539;28;20390;-67
2020/12/06 01:10:25;;;;;;;10.02;6.10;;;179.70;2252.80;;;;;;5116195;28;20043;-67
2020/12/06 01:12:51;;;;;;;15.30;6.72;;;179.60;2252.80;;;;;;5116596;28;20019;-67
2020/12/06 01:15:17;;;;;;;12.20;6.40;;;179.60;2252.80;;;;;;5116716;28;20026;-68
2020/12/06 01:17:43;;;;;;;9.88;5.57;;;179.60;2252.80;;;;;;5116130;28;20024;-69
2020/12/06 01:20:09;;;;;;;10.45;6.15;;;179.50;2252.80;;;;;;5116151;28;20031;-68
2020/12/06 01:22:35;;;;;;;9.73;6.13;;;179.50;2252.80;;;;;;5114744;28;20083;-68
2020/12/06 01:25:05;;;;;;;9.93;5.68;;;179.60;2252.80;;;;;;5115610;28;20031;-66
2020/12/06 01:27:31;;;;;;;10.05;6.30;;;179.70;2252.80;;;;;;5116073;28;20646;-68
2020/12/06 01:29:57;;;;;;;9.18;5.70;;;179.70;2252.80;;;;;;5116020;28;20061;-68
2020/12/06 01:32:23;;;;;;;10.65;6.18;;;179.70;2252.80;;;;;;5115918;28;20070;-67
2020/12/06 01:34:49;;;;;;;10.38;5.57;;;179.70;2252.80;;;;;;5115329;28;20496;-66
2020/12/06 01:37:15;;;;;;;10.95;6.68;;;179.70;2252.80;;;;;;5115722;28;20059;-69
2020/12/06 01:39:41;;;;;;;9.40;6.10;;;179.70;2252.80;;;;;;5115968;28;20070;-69
2020/12/06 01:42:07;;;;;;;8.77;6.40;;;179.70;2252.80;;;;;;5109165;28;20027;-67
2020/12/06 01:44:33;;;;;;;7.90;5.53;;;179.70;2252.80;;;;;;5115519;28;20034;-66
2020/12/06 01:46:59;;;;;;;10.65;6.18;;;179.70;2252.80;;;;;;5115752;28;20321;-66
2020/12/06 01:49:26;;;;;;;10.55;6.35;;;179.70;2252.80;;;;;;5115702;28;20114;-68
2020/12/06 01:51:58;;;;;;;12.25;6.80;;;179.70;2252.80;;;;;;5116089;28;20329;-65
2020/12/06 01:54:25;;;;;;;11.40;6.55;;;179.70;2252.80;;;;;;5115729;28;20097;-68
2020/12/06 01:56:51;;;;;;;9.85;6.18;;;179.70;2252.80;;;;;;5115310;28;20329;-67
2020/12/06 01:59:18;;;;;;;9.43;6.18;;;179.70;2252.80;;;;;;5115441;28;20038;-67
2020/12/06 02:02:02;;;;;;;10.95;6.00;;;179.70;2252.80;;;;;;5115942;28;20033;-67
2020/12/06 02:04:31;;;;;;;9.48;6.05;;;179.70;2252.80;;;;;;5115418;28;20408;-66
2020/12/06 02:06:58;;;;;;;12.40;7.25;;;179.80;2252.80;;;;;;5114663;28;20366;-67
2020/12/06 02:09:27;;;;;;;9.77;6.45;;;179.80;2252.80;;;;;;5115282;28;20741;-70
2020/12/06 02:11:53;;;;;;;11.52;6.28;;;179.80;2252.80;;;;;;5115249;28;20354;-68
2020/12/06 02:14:19;;;;;;;9.80;6.15;;;179.80;2252.80;;;;;;5115148;28;20031;-68
2020/12/06 02:16:46;;;;;;;10.55;5.82;;;179.80;2252.80;;;;;;5115241;28;20043;-68
2020/12/06 02:19:12;;;;;;;10.55;6.30;;;179.80;2252.80;;;;;;5115484;28;20027;-67
2020/12/06 02:21:40;;;;;;;10.82;6.55;;;180.00;2252.80;;;;;;5115425;28;20056;-65
2020/12/06 02:24:10;;;;;;;11.60;6.68;;;180.10;2227.20;;;;;;5115238;28;20027;-67
2020/12/06 02:26:44;;;;;;;10.18;6.72;;;204.90;2227.20;;;;;;5115269;28;20030;-66
2020/12/06 02:29:11;;;;;;;11.07;6.38;;;205.00;2201.60;;;;;;5115258;28;20038;-68
2020/12/06 02:31:37;;;;;;;12.32;6.53;;;205.10;2201.60;;;;;;5115034;28;20030;-68
2020/12/06 02:34:05;;;;;;;10.60;6.78;;;205.20;2176.00;;;;;;5117896;28;20035;-68
2020/12/06 02:36:31;;;;;;;11.55;7.40;;;205.00;2201.60;;;;;;5119253;28;20413;-72
2020/12/06 02:38:57;;;;;;;9.70;6.28;;;205.00;2201.60;;;;;;5119303;28;20100;-66
2020/12/06 02:41:35;;;;;;;11.10;6.90;;;205.00;2201.60;;;;;;5116271;28;20429;-68
2020/12/06 02:44:02;;;;;;;11.60;6.60;;;204.90;2201.60;;;;;;5119167;28;20027;-67
2020/12/06 02:46:28;;;;;;;11.60;7.03;;;180.10;2201.60;;;;;;5119638;28;20030;-68
2020/12/06 02:48:54;;;;;;;9.60;6.32;;;180.00;2227.20;;;;;;5119540;28;20031;-68
2020/12/06 02:51:20;;;;;;;10.88;5.95;;;180.00;2227.20;;;;;;5119070;28;20709;-68
2020/12/06 02:53:45;;;;;;;11.95;7.53;;;179.90;2227.20;;;;;;5118985;28;20032;-67
2020/12/06 02:56:11;;;;;;;14.40;6.18;;;180.10;2252.80;;;;;;5119090;28;20031;-67
2020/12/06 02:58:37;;;;;;;13.70;6.45;;;205.00;2227.20;;;;;;5118628;28;20028;-68
2020/12/06 03:01:03;;;;;;;11.48;5.82;;;205.10;2201.60;;;;;;5118702;28;20039;-68
2020/12/06 03:03:28;;;;;;;9.88;6.32;;;205.30;2176.00;;;;;;5118913;28;20024;-68
2020/12/06 03:05:54;;;;;;;11.23;6.10;;;205.40;2176.00;;;;;;5118558;28;20448;-66
2020/12/06 03:08:20;;;;;;;10.35;6.32;;;205.50;2150.40;;;;;;5119135;28;20410;-67
2020/12/06 03:10:46;;;;;;;9.75;6.15;;;205.60;2124.80;;;;;;5119000;28;20035;-67
2020/12/06 03:13:11;;;;;;;10.90;5.70;;;205.60;2124.80;;;;;;5118655;28;20046;-67
2020/12/06 03:15:37;;;;;;;9.55;5.30;;;205.60;2124.80;;;;;;5118760;28;20491;-67
2020/12/06 03:18:03;;;;;;;9.02;5.50;;;205.70;2099.20;;;;;;5118867;28;20302;-67
2020/12/06 03:20:28;;;;;;;9.68;5.78;;;205.70;2099.20;;;;;;5118763;28;20027;-69
2020/12/06 03:22:54;;;;;;;10.32;6.15;;;205.70;2099.20;;;;;;5118630;28;20055;-68
2020/12/06 03:25:20;;;;;;;9.27;5.15;;;205.60;2099.20;;;;;;5118585;28;20031;-68
2020/12/06 03:27:46;;;;;;;9.55;5.93;;;205.60;2124.80;;;;;;5118565;28;20357;-69
2020/12/06 03:30:12;;;;;;;10.35;5.53;;;205.60;2099.20;;;;;;5118257;28;20036;-67
2020/12/06 03:32:37;;;;;;;9.80;6.30;;;205.60;2099.20;;;;;;5118815;28;20131;-68
2020/12/06 03:35:03;;;;;;;10.25;5.65;;;205.60;2099.20;;;;;;5118695;28;20108;-68
2020/12/06 03:37:29;;;;;;;9.75;6.10;;;205.40;2124.80;;;;;;5117826;28;20454;-67
2020/12/06 03:39:55;;;;;;;10.77;5.80;;;205.30;2150.40;;;;;;5118075;28;20106;-66
2020/12/06 03:42:21;;;;;;;10.75;6.57;;;205.20;2150.40;;;;;;5117521;28;20344;-67
2020/12/06 03:44:46;;;;;;;12.40;6.43;;;205.10;2150.40;;;;;;5117309;28;20023;-67
2020/12/06 03:47:12;;;;;;;7.88;5.38;;;205.00;2176.00;;;;;;5115935;28;20104;-67
2020/12/06 03:49:38;;;;;;;11.73;6.10;;;205.00;2176.00;;;;;;5120657;28;20411;-67
2020/12/06 03:52:04;;;;;;;11.43;6.65;;;205.00;2201.60;;;;;;5120549;28;20028;-67
2020/12/06 03:54:29;;;;;;;9.68;5.82;;;204.80;2201.60;;;;;;5120162;28;20054;-67
2020/12/06 03:56:55;;;;;;;12.23;6.25;;;204.90;2201.60;;;;;;5119974;28;20024;-68
2020/12/06 03:59:21;;;;;;;9.30;5.88;;;204.80;2201.60;;;;;;5120158;28;20436;-69
2020/12/06 04:01:47;;;;;;;12.93;5.70;;;204.80;2201.60;;;;;;5119655;28;20020;-68
2020/12/06 04:04:12;;;;;;;10.80;5.68;;;204.90;2201.60;;;;;;5119826;28;20047;-68
2020/12/06 04:06:38;;;;;;;9.48;6.07;;;205.00;2201.60;;;;;;5119933;28;20027;-66
2020/12/06 04:09:04;;;;;;;9.32;6.10;;;205.00;2176.00;;;;;;5120131;28;20409;-67
2020/12/06 04:11:30;;;;;;;12.02;6.40;;;205.00;2201.60;;;;;;5120189;28;20030;-68
2020/12/06 04:13:55;;;;;;;9.77;5.68;;;204.90;2201.60;;;;;;5120221;28;20031;-66
2020/12/06 04:16:21;;;;;;;9.50;6.10;;;204.90;2201.60;;;;;;5119961;28;20066;-67
2020/12/06 04:18:47;;;;;;;11.13;6.13;;;204.90;2201.60;;;;;;5119494;28;20019;-67
2020/12/06 04:21:13;;;;;;;9.65;6.18;;;204.90;2201.60;;;;;;5119417;28;20421;-68
2020/12/06 04:23:39;;;;;;;9.07;6.00;;;204.90;2227.20;;;;;;5119630;28;20023;-67
2020/12/06 04:26:05;;;;;;;9.73;5.97;;;205.00;2201.60;;;;;;5119661;28;20423;-68
2020/12/06 04:28:31;;;;;;;11.88;5.97;;;205.00;2201.60;;;;;;5119582;28;20332;-67
2020/12/06 04:30:57;;;;;;;9.80;6.20;;;205.10;2201.60;;;;;;5119448;28;20034;-68
2020/12/06 04:33:23;;;;;;;8.25;5.38;;;205.20;2176.00;;;;;;5119729;28;20026;-67
2020/12/06 04:35:49;;;;;;;9.68;5.45;;;205.20;2176.00;;;;;;5119619;28;20024;-67
2020/12/06 04:38:15;;;;;;;9.73;5.60;;;205.40;2150.40;;;;;;5119749;28;20047;-68
2020/12/06 04:40:41;;;;;;;9.13;5.20;;;205.40;2150.40;;;;;;5119625;28;20363;-67
2020/12/06 04:43:07;;;;;;;8.85;5.60;;;205.50;2124.80;;;;;;5118886;28;20020;-67
2020/12/06 04:45:33;;;;;;;9.60;5.18;;;205.60;2124.80;;;;;;5119352;28;20031;-68
2020/12/06 04:48:08;;;;;;;10.50;5.43;;;205.70;2099.20;;;;;;5118604;28;20393;-68
2020/12/06 04:50:42;;;;;;;8.27;4.72;;;230.40;2099.20;;;;;;5119007;28;20047;-68
2020/12/06 04:53:16;;;;;;;12.13;6.05;;;230.40;2099.20;;;;;;5119168;28;20023;-70
2020/12/06 04:55:45;;;;;;;8.40;4.95;;;230.40;2099.20;;;;;;5104110;28;20028;-68
2020/12/06 04:58:20;;;;;;;8.77;5.25;;;230.50;2073.60;;;;;;5097627;28;20031;-66
2020/12/06 05:00:46;;;;;;;8.07;4.90;;;230.50;2073.60;;;;;;5098576;28;20039;-66
2020/12/06 05:03:12;;;;;;;8.55;4.97;;;230.40;2073.60;;;;;;5098550;28;20020;-69
2020/12/06 05:05:40;;;;;;;9.50;5.28;;;230.40;2073.60;;;;;;5098352;28;20084;-69
2020/12/06 05:08:11;;;;;;;8.75;5.47;;;230.40;2073.60;;;;;;5098615;28;20147;-68
2020/12/06 05:10:47;;;;;;;7.55;4.90;;;230.40;2073.60;;;;;;5098369;28;20028;-66
2020/12/06 05:13:14;;;;;;;8.30;5.35;;;230.50;2099.20;;;;;;5098463;28;20077;-66
2020/12/06 05:15:40;;;;;;;7.90;5.25;;;230.40;2099.20;;;;;;5098182;28;20024;-68
2020/12/06 05:18:06;;;;;;;9.65;6.00;;;230.40;2073.60;;;;;;5098370;28;20027;-67
2020/12/06 05:20:33;;;;;;;8.27;5.20;;;230.40;2099.20;;;;;;5098531;28;20321;-67
2020/12/06 05:22:59;;;;;;;9.23;5.63;;;230.40;2099.20;;;;;;5098512;28;20056;-68
2020/12/06 05:25:25;;;;;;;8.02;4.93;;;230.40;2099.20;;;;;;5097408;28;20027;-66
2020/12/06 05:27:51;;;;;;;8.05;5.13;;;230.40;2099.20;;;;;;5098073;28;20078;-68
2020/12/06 05:30:17;;;;;;;8.52;5.63;;;205.70;2099.20;;;;;;5098252;28;20028;-67
2020/12/06 05:32:43;;;;;;;9.57;5.57;;;205.70;2099.20;;;;;;5098152;28;20421;-70
2020/12/06 05:35:10;;;;;;;8.30;4.95;;;205.70;2099.20;;;;;;5098006;28;20398;-68
2020/12/06 05:37:38;;;;;;;9.60;5.90;;;205.70;2099.20;;;;;;5097921;28;20032;-68
2020/12/06 05:40:05;;;;;;;8.55;5.18;;;205.70;2099.20;;;;;;5097671;28;20027;-67
2020/12/06 05:42:35;;;;;;;11.32;7.63;;;205.70;2099.20;;;;;;5097764;28;20028;-68
2020/12/06 05:45:02;;;;;;;12.57;7.10;;;205.70;2099.20;;;;;;5097892;28;20398;-68
2020/12/06 05:47:28;;;;;;;8.02;5.40;;;205.70;2099.20;;;;;;5097318;28;20138;-66
2020/12/06 05:49:57;;;;;;;9.32;5.70;;;205.70;2099.20;;;;;;5097685;28;20465;-69
2020/12/06 05:52:24;;;;;;;7.28;4.72;;;205.70;2099.20;;;;;;5097702;28;20032;-68
2020/12/06 05:54:50;;;;;;;8.85;5.15;;;205.70;2099.20;;;;;;5097494;28;20413;-66
2020/12/06 05:57:16;;;;;;;6.93;4.75;;;205.70;2099.20;;;;;;5097322;28;20020;-66
2020/12/06 05:59:42;;;;;;;8.13;5.10;;;205.70;2073.60;;;;;;5108162;28;20028;-67
2020/12/06 06:02:09;;;;;;;9.32;4.80;;;205.70;2073.60;;;;;;5117775;28;20028;-66
2020/12/06 06:04:41;;;;;;;10.77;5.38;;;205.70;2073.60;;;;;;5117825;28;20155;-67
2020/12/06 06:07:14;;;;;;;32.75;20.02;;;205.70;2099.20;;;;;;5117624;28;20666;-69
2020/12/06 06:09:42;;;;;;;202.75;105.00;;;205.60;2099.20;;;;;;5117333;28;20114;-67
2020/12/06 06:12:32;;;;;;;64.88;45.97;;;205.70;2099.20;;;;;;5117751;28;20027;-68
2020/12/06 06:15:02;;;;;;;25.02;14.02;;;205.60;2099.20;;;;;;5117359;28;20111;-67
2020/12/06 06:17:30;;;;;;;19.40;10.63;;;205.70;2099.20;;;;;;5117717;28;20031;-70
2020/12/06 06:19:56;;;;;;;19.40;13.17;;;205.60;2099.20;;;;;;5117512;28;20317;-69
2020/12/06 06:22:33;;;;;;;23.25;10.18;;;205.70;2099.20;;;;;;5106418;28;20399;-66
2020/12/06 06:25:01;;;;;;;67.93;42.63;;;205.70;2099.20;;;;;;5097800;28;20329;-66
2020/12/06 06:27:41;;;;;;;47.20;32.00;;;205.60;2099.20;;;;;;5097178;28;20032;-69
2020/12/06 06:30:08;;;;;;;10.95;6.85;;;205.60;2099.20;;;;;;5097324;28;20032;-67
2020/12/06 06:32:35;;;;;;;17.05;12.98;;;205.70;2099.20;;;;;;5096932;28;20448;-66
2020/12/06 06:35:03;;;;;;;10.70;6.20;;;205.70;2099.20;;;;;;5096764;28;20020;-67
2020/12/06 06:37:30;;;;;;;12.20;8.63;;;230.40;2073.60;;;;;;5097492;28;20051;-68
2020/12/06 06:40:03;;;;;;;20.58;11.35;;;230.40;2073.60;;;;;;5097087;28;20031;-69
2020/12/06 06:42:30;;;;;;;9.82;7.07;;;230.50;2073.60;;;;;;5113663;28;20115;-69
2020/12/06 06:45:10;;;;;;;11.48;5.40;;;230.50;2073.60;;;;;;5117772;28;20031;-68
2020/12/06 06:47:40;;;;;;;16.00;10.35;;;230.50;2099.20;;;;;;5117359;28;20423;-70
2020/12/06 06:50:11;;;;;;;10.57;7.60;;;230.60;2099.20;;;;;;5117032;28;20031;-66
2020/12/06 06:52:40;;;;;;;20.92;15.15;;;230.60;2073.60;;;;;;5117420;28;20084;-68
2020/12/06 06:55:08;;;;;;;15.82;12.85;;;230.70;2073.60;;;;;;5117078;28;20328;-69
2020/12/06 06:57:34;;;;;;;13.23;10.57;;;230.70;2073.60;;;;;;5116644;28;20041;-67
2020/12/06 07:00:00;;;;;;;13.25;7.63;;;230.60;2073.60;;;;;;5116727;28;20019;-68
2020/12/06 07:02:36;;;;;;;14.38;7.30;;;230.60;2073.60;;;;;;5100012;28;20031;-67
2020/12/06 07:05:07;;;;;;;8.38;5.95;;;230.80;2073.60;;;;;;5096410;28;20028;-68
2020/12/06 07:07:47;;;;;;;20.90;11.23;;;230.80;2048.00;;;;;;5097062;28;20085;-67
2020/12/06 07:10:18;;;;;;;17.27;10.88;;;230.90;2048.00;;;;;;5096671;28;20060;-70
2020/12/06 07:12:48;;;;;;;20.95;9.70;;;230.90;2048.00;;;;;;5097469;28;20089;-67
2020/12/06 07:15:16;;;;;;;10.60;6.60;;;231.00;2022.40;;;;;;5097841;28;20028;-67
2020/12/06 07:17:42;;;;;;;14.48;5.50;;;231.10;2022.40;;;;;;5114065;28;20024;-69
2020/12/06 07:20:10;;;;;;;7.82;5.07;;;230.90;2048.00;;;;;;5118344;28;20023;-69
2020/12/06 07:22:36;;;;;;;13.73;5.88;;;231.00;2048.00;;;;;;5121200;28;20044;-68
2020/12/06 07:25:07;;;;;;;10.20;4.43;;;231.00;2048.00;;;;;;5121055;28;20164;-69
2020/12/06 07:27:34;;;;;;;26.13;9.68;;;230.80;2048.00;;;;;;5121045;28;20055;-67
2020/12/06 07:30:01;;;;;;;26.65;16.90;;;230.70;2073.60;;;;;;5115911;28;20036;-70
2020/12/06 07:32:27;;;;;;;28.83;14.73;;;230.70;2073.60;;;;;;5119802;28;20106;-68
2020/12/06 07:34:52;;;;;;;20.38;8.95;;;230.80;2073.60;;;;;;5120683;28;20507;-70
2020/12/06 07:37:21;;;;;;;12.88;5.25;;;230.90;2073.60;;;;;;5119960;28;20031;-69
2020/12/06 07:39:47;;;;;;;9.45;4.97;;;230.60;2073.60;;;;;;5119991;28;20024;-67
2020/12/06 07:42:25;;;;;;;13.85;5.80;;;205.70;2124.80;;;;;;5120841;28;20034;-67
2020/12/06 07:44:53;;;;;;;14.63;5.32;;;205.60;2124.80;;;;;;5120410;28;20023;-68
2020/12/06 07:47:19;;;;;;;20.42;10.07;;;205.60;2124.80;;;;;;5114398;28;20027;-68
2020/12/06 07:49:51;;;;;;;46.10;27.10;;;230.40;2124.80;;;;;;5120368;28;20039;-68
2020/12/06 07:52:22;;;;;;;36.83;23.35;;;230.60;2099.20;;;;;;5120005;28;20028;-68
2020/12/06 07:55:00;;;;;;;12.35;7.05;;;230.70;2073.60;;;;;;5120665;28;20027;-68
2020/12/06 07:57:38;;;;;;;56.75;33.13;;;230.60;2073.60;;;;;;5120543;28;20023;-70
2020/12/06 08:00:16;;;;;;;36.53;20.75;;;230.60;2073.60;;;;;;5120425;28;20059;-71
2020/12/06 08:02:47;;;;;;;41.92;23.92;;;230.80;2073.60;;;;;;5102162;28;20034;-67
2020/12/06 08:05:19;;;;;;;66.65;39.40;;;230.80;2073.60;;;;;;5099778;28;20384;-67
2020/12/06 08:07:56;;;;;;;37.17;21.40;;;230.90;2048.00;;;;;;5099493;28;20020;-70
2020/12/06 08:10:25;;;;;;;40.75;24.45;;;230.90;2048.00;;;;;;5099638;28;20031;-69
2020/12/06 08:12:53;;;;;;;47.13;27.02;;;230.90;2048.00;;;;;;5099594;28;20024;-69
2020/12/06 08:15:24;;;;;;;45.83;24.67;;;231.00;2048.00;;;;;;5099752;28;20107;-68
2020/12/06 08:17:51;;;;;;;55.25;29.35;;;231.20;2048.00;;;;;;5098891;28;20055;-69
2020/12/06 08:20:19;;;;;;;67.07;38.60;;;231.20;2022.40;;;;;;5100661;28;20061;-69
2020/12/06 08:22:50;;;;;;;21.42;12.48;;;231.30;2022.40;;;;;;5115856;28;20047;-69
2020/12/06 08:25:22;;;;;;;23.52;10.27;;;256.00;1971.20;;;;;;5119878;28;20024;-68
2020/12/06 08:27:49;;;;;;;12.88;7.82;;;256.30;1971.20;;;;;;5119518;28;20028;-69
2020/12/06 08:30:17;;;;;;;38.22;21.02;;;256.50;1945.60;;;;;;5117229;28;20024;-69
2020/12/06 08:33:00;;;;;;;19.60;11.60;;;256.60;1920.00;;;;;;5101637;28;20031;-69
2020/12/06 08:35:42;;;;;;;14.95;7.93;;;256.70;1920.00;;;;;;5099191;28;20223;-68
2020/12/06 08:38:22;;;;;;;11.48;7.15;;;256.80;1920.00;;;;;;5101914;28;20055;-69
2020/12/06 08:41:06;;;;;;;12.40;7.68;;;256.90;1894.40;;;;;;5110585;28;20030;-68
2020/12/06 08:43:50;;;;;;;11.82;4.97;;;281.60;1894.40;;;;;;5114250;28;20032;-68
2020/12/06 08:46:23;;;;;;;9.05;4.82;;;281.80;1868.80;;;;;;5095734;28;20028;-67
2020/12/06 08:48:57;;;;;;;9.95;6.05;;;281.80;1868.80;;;;;;5098714;28;20077;-68
2020/12/06 08:51:31;;;;;;;17.05;8.43;;;281.90;1868.80;;;;;;5105445;28;20016;-67
2020/12/06 08:54:02;;;;;;;18.65;9.50;;;281.90;1868.80;;;;;;5108517;28;20031;-69
2020/12/06 08:56:37;;;;;;;20.67;10.18;;;282.00;1868.80;;;;;;5116417;28;20021;-67
2020/12/06 08:59:08;;;;;;;11.98;6.22;;;282.10;1868.80;;;;;;5115670;28;20027;-67
2020/12/06 09:01:49;;;;;;;11.02;7.15;;;282.10;1843.20;;;;;;5115562;28;20027;-67
2020/12/06 09:04:27;;;;;;;8.93;4.65;;;282.20;1843.20;;;;;;5110058;27;20452;-67
2020/12/06 09:07:00;;;;;;;11.43;5.20;;;282.30;1843.20;;;;;;5112503;27;20126;-68
2020/12/06 09:09:32;;;;;;;17.00;5.45;;;282.40;1817.60;;;;;;5117926;27;20080;-70
2020/12/06 09:11:59;;;;;;;11.13;4.88;;;282.50;1817.60;;;;;;5125225;27;20059;-70
2020/12/06 09:14:25;;;;;;;20.77;7.20;;;282.50;1817.60;;;;;;5120377;27;20035;-68
2020/12/06 09:16:53;;;;;;;26.60;13.77;;;307.20;1817.60;;;;;;5107983;27;20030;-68
2020/12/06 09:19:19;;;;;;;30.52;18.92;;;307.30;1817.60;;;;;;5126139;27;20126;-68
2020/12/06 09:21:47;;;;;;;36.47;24.33;;;307.30;1817.60;;;;;;5118487;27;20546;-70
2020/12/06 09:24:13;;;;;;;20.55;10.75;;;307.40;1817.60;;;;;;5134126;27;20035;-66
2020/12/06 09:26:39;;;;;;;23.40;12.50;;;307.40;1792.00;;;;;;5135702;27;20031;-69
2020/12/06 09:29:06;;;;;;;38.08;18.48;;;307.50;1792.00;;;;;;5106370;27;20109;-68
2020/12/06 09:31:32;;;;;;;33.55;24.90;;;307.40;1792.00;;;;;;5114781;28;20047;-68
2020/12/06 09:33:57;;;;;;;19.98;13.32;;;307.40;1792.00;;;;;;5116228;28;20023;-68
2020/12/06 09:36:24;;;;;;;10.48;5.20;;;307.40;1792.00;;;;;;5112787;28;20385;-69
2020/12/06 09:38:51;;;;;;;13.55;6.53;;;307.20;1792.00;;;;;;5113388;28;20027;-69
2020/12/06 09:41:17;;;;;;;9.00;5.70;;;307.30;1792.00;;;;;;5116462;28;20102;-69
2020/12/06 09:43:45;;;;;;;18.10;8.05;;;307.30;1792.00;;;;;;5112961;28;20456;-68
2020/12/06 09:46:13;;;;;;;13.23;10.02;;;307.20;1792.00;;;;;;5114282;28;20093;-67
2020/12/06 09:48:39;;;;;;;25.58;15.82;;;307.20;1792.00;;;;;;5114304;27;20034;-67
2020/12/06 09:51:06;;;;;;;12.35;7.28;;;307.30;1792.00;;;;;;5115061;28;20146;-69
2020/12/06 09:53:32;;;;;;;19.30;8.00;;;307.30;1792.00;;;;;;5112736;28;20035;-66
2020/12/06 09:55:58;;;;;;;11.35;7.20;;;307.50;1792.00;;;;;;5115697;28;20114;-67
2020/12/06 09:58:24;;;;;;;15.68;8.00;;;307.50;1766.40;;;;;;5124429;27;20031;-67
2020/12/06 10:00:50;;;;;;;19.65;11.70;;;307.50;1766.40;;;;;;5123755;27;20427;-68
2020/12/06 10:03:16;;;;;;;27.75;13.05;;;307.60;1766.40;;;;;;5115680;27;20023;-68
2020/12/06 10:05:43;;;;;;;22.25;7.88;;;307.60;1766.40;;;;;;5133833;27;20047;-67
2020/12/06 10:08:09;;;;;;;15.98;9.55;;;307.70;1766.40;;;;;;5114271;28;20072;-66
2020/12/06 10:10:35;;;;;;;20.35;9.88;;;307.70;1740.80;;;;;;5116008;28;20384;-67
2020/12/06 10:13:01;;;;;;;12.77;6.55;;;307.60;1766.40;;;;;;5112708;28;20036;-69
2020/12/06 10:15:26;;;;;;;9.45;6.28;;;307.50;1766.40;;;;;;5104432;28;20031;-67
2020/12/06 10:17:52;;;;;;;10.95;4.97;;;307.60;1766.40;;;;;;5105557;28;20028;-70
2020/12/06 10:20:21;;;;;;;12.93;5.03;;;307.70;1766.40;;;;;;5105313;28;20040;-67
2020/12/06 10:22:47;;;;;;;14.82;8.73;;;307.70;1740.80;;;;;;5105661;28;20044;-68
2020/12/06 10:25:13;;;;;;;9.55;5.78;;;307.50;1766.40;;;;;;5104937;28;20028;-68
2020/12/06 10:27:39;;;;;;;13.55;8.88;;;307.40;1766.40;;;;;;5105678;28;20023;-66
2020/12/06 10:30:06;;;;;;;13.77;8.93;;;307.50;1766.40;;;;;;5109245;28;20031;-66
2020/12/06 10:32:32;;;;;;;9.57;5.60;;;307.50;1766.40;;;;;;5108419;28;20017;-66
2020/12/06 10:34:58;;;;;;;9.75;5.72;;;307.50;1766.40;;;;;;5096766;28;20034;-68
2020/12/06 10:37:24;;;;;;;8.00;4.63;;;307.70;1740.80;;;;;;5113586;28;20110;-67
2020/12/06 10:39:50;;;;;;;10.80;7.65;;;307.70;1740.80;;;;;;5109916;28;20603;-67
2020/12/06 10:42:17;;;;;;;13.27;7.43;;;307.60;1740.80;;;;;;5096886;28;20024;-66
2020/12/06 10:44:42;;;;;;;8.82;5.13;;;307.70;1740.80;;;;;;5095526;28;20056;-66
2020/12/06 10:47:08;;;;;;;9.13;5.85;;;307.70;1740.80;;;;;;5096836;28;20404;-67
2020/12/06 10:49:40;;;;;;;8.00;4.85;;;308.00;1715.20;;;;;;5100930;28;20031;-66
2020/12/06 10:52:08;;;;;;;6.78;4.50;;;308.00;1715.20;;;;;;5115505;28;20122;-67
2020/12/06 10:54:34;;;;;;;6.57;3.88;;;332.80;1715.20;;;;;;5117133;28;20151;-65
2020/12/06 10:57:00;;;;;;;5.70;3.50;;;332.80;1715.20;;;;;;5118126;28;20071;-66
2020/12/06 10:59:27;;;;;;;11.40;4.28;;;333.10;1689.60;;;;;;5119499;28;20050;-66
2020/12/06 11:01:53;;;;;;;15.13;4.10;;;333.50;1664.00;;;;;;5120673;28;20028;-67
2020/12/06 11:04:19;;;;;;;24.67;15.15;;;333.60;1638.40;;;;;;5119329;28;20328;-66
2020/12/06 11:06:44;;;;;;;13.00;6.35;;;333.70;1638.40;;;;;;5118797;28;20020;-66
2020/12/06 11:09:10;;;;;;;13.07;6.80;;;333.60;1638.40;;;;;;5099325;28;20032;-66
2020/12/06 11:11:36;;;;;;;14.95;6.93;;;333.60;1612.80;;;;;;5098435;28;20024;-71
2020/12/06 11:14:02;;;;;;;12.57;4.72;;;333.70;1612.80;;;;;;5123363;27;20035;-67
2020/12/06 11:16:28;;;;;;;8.00;4.32;;;358.40;1612.80;;;;;;5118684;27;20138;-69
2020/12/06 11:18:53;;;;;;;6.82;3.80;;;358.40;1612.80;;;;;;5120622;27;20373;-68
2020/12/06 11:21:20;;;;;;;7.43;3.60;;;333.60;1612.80;;;;;;5137684;27;20079;-69
2020/12/06 11:23:48;;;;;;;6.07;3.22;;;358.60;1587.20;;;;;;5140053;27;20038;-67
2020/12/06 11:26:14;;;;;;;5.43;3.75;;;358.70;1587.20;;;;;;5137718;27;20023;-68
2020/12/06 11:28:41;;;;;;;5.57;3.67;;;359.20;1536.00;;;;;;5139388;27;20118;-66
2020/12/06 11:31:08;;;;;;;5.53;3.83;;;384.10;1510.40;;;;;;5138695;27;20459;-67
2020/12/06 11:33:34;;;;;;;8.30;4.25;;;384.20;1484.80;;;;;;5138755;27;20023;-65
2020/12/06 11:36:00;;;;;;;7.90;3.42;;;384.10;1510.40;;;;;;5137969;27;20610;-67
2020/12/06 11:38:26;;;;;;;12.73;3.78;;;384.10;1484.80;;;;;;5133206;27;20031;-68
2020/12/06 11:40:52;;;;;;;9.75;3.60;;;359.10;1510.40;;;;;;5113378;27;20038;-67
2020/12/06 11:43:17;;;;;;;7.60;4.15;;;358.60;1561.60;;;;;;5110511;27;20020;-67
2020/12/06 11:45:43;;;;;;;8.20;4.05;;;333.40;1612.80;;;;;;5107254;28;20031;-68
2020/12/06 11:48:09;;;;;;;5.88;4.57;;;358.90;1536.00;;;;;;5097692;28;20042;-67
2020/12/06 11:50:35;;;;;;;8.48;6.07;;;359.20;1510.40;;;;;;5095278;28;20035;-68
2020/12/06 11:53:02;;;;;;;10.25;6.65;;;359.20;1510.40;;;;;;5096252;28;20403;-67
2020/12/06 11:55:28;;;;;;;12.48;5.50;;;358.80;1561.60;;;;;;5095625;28;20165;-67
2020/12/06 11:57:54;;;;;;;10.35;5.95;;;359.10;1510.40;;;;;;5127914;27;20030;-68
2020/12/06 12:00:20;;;;;;;11.52;6.38;;;358.40;1561.60;;;;;;5137341;27;20314;-68
2020/12/06 12:02:46;;;;;;;13.88;4.90;;;333.60;1612.80;;;;;;5137630;27;20034;-66
2020/12/06 12:05:12;;;;;;;14.25;4.00;;;333.50;1612.80;;;;;;5137989;27;20019;-67
2020/12/06 12:07:38;;;;;;;7.40;4.57;;;333.70;1587.20;;;;;;5137112;27;20027;-67
2020/12/06 12:10:05;;;;;;;8.10;3.33;;;384.00;1510.40;;;;;;5137235;27;20046;-68
2020/12/06 12:12:31;;;;;;;23.30;4.32;;;384.40;1459.20;;;;;;5137156;27;20033;-67
2020/12/06 12:14:56;;;;;;;7.25;3.80;;;359.20;1510.40;;;;;;5136739;27;20413;-69